Time;durP1;ratioP1;P1;durP2;ratioP2;P2;SDS_P1;SDS_P2;PMS_P1;PMS_P2;Temp;Humidity;BMP_temperature;BMP_pressure;BME280_temperature;BME280_humidity;BME280_pressure;Samples;Min_cycle;Max_cycle;Signal;HPM_P1;HPM_P2
2022/10/11 00:08:07;;;;;;;1999.90;999.90;;;11.20;99.90;;;;;;6731057;88;20177;-81
2022/10/11 00:18:08;;;;;;;1999.90;999.90;;;11.00;99.90;;;;;;6730806;88;20158;-81
2022/10/11 00:28:09;;;;;;;1999.90;999.90;;;10.90;99.90;;;;;;6730742;88;20198;-82
2022/10/11 00:38:09;;;;;;;1999.90;999.90;;;10.70;99.90;;;;;;6729905;88;20205;-81
2022/10/11 00:48:17;;;;;;;1999.90;999.90;;;10.50;99.90;;;;;;6730441;88;20169;-81
2022/10/11 00:58:19;;;;;;;1999.90;999.90;;;10.50;99.90;;;;;;6729820;88;20303;-80
2022/10/11 01:08:20;;;;;;;1999.90;999.90;;;10.40;99.90;;;;;;6729679;88;20186;-81
2022/10/11 01:18:33;;;;;;;1999.90;999.90;;;10.30;99.90;;;;;;6731462;88;20798;-80
2022/10/11 01:28:41;;;;;;;1999.90;999.90;;;10.20;99.90;;;;;;6730100;88;20207;-81
2022/10/11 01:38:52;;;;;;;1999.90;999.90;;;10.10;99.90;;;;;;6726634;88;20838;-79
2022/10/11 01:48:57;;;;;;;1999.90;999.90;;;10.00;99.90;;;;;;6749178;88;20186;-81
2022/10/11 01:59:18;;;;;;;1999.90;999.90;;;9.90;99.90;;;;;;6749075;88;20166;-80
2022/10/11 02:09:37;;;;;;;1999.90;999.90;;;9.70;99.90;;;;;;6732328;88;20178;-81
2022/10/11 02:19:42;;;;;;;1999.90;999.90;;;9.60;99.90;;;;;;6731904;88;20205;-82
2022/10/11 02:29:46;;;;;;;1999.90;999.90;;;9.40;99.90;;;;;;6751421;88;20185;-80
2022/10/11 02:40:06;;;;;;;1999.90;999.90;;;9.40;99.90;;;;;;6734638;88;20227;-80
2022/10/11 02:50:10;;;;;;;1999.90;999.90;;;9.00;99.90;;;;;;6751273;88;20294;-81
2022/10/11 03:00:12;;;;;;;1999.90;999.90;;;8.60;99.90;;;;;;6751159;88;20184;-81
2022/10/11 03:10:12;;;;;;;1999.90;999.90;;;8.70;99.90;;;;;;6751658;88;20161;-80
2022/10/11 03:20:13;;;;;;;1999.90;999.90;;;8.70;99.90;;;;;;6750085;88;20590;-82
2022/10/11 03:40:17;;;;;;;1999.90;999.90;;;8.60;99.90;;;;;;6734005;88;20568;-83
2022/10/11 03:50:17;;;;;;;1999.90;999.90;;;8.50;99.90;;;;;;6733130;88;20191;-84
2022/10/11 04:00:18;;;;;;;1999.90;999.90;;;8.40;99.90;;;;;;6733117;88;20173;-84
2022/10/11 04:10:19;;;;;;;1999.90;999.90;;;8.40;99.90;;;;;;6679941;89;20219;-84
2022/10/11 04:20:20;;;;;;;1999.90;999.90;;;8.40;99.90;;;;;;6680605;89;20172;-83
2022/10/11 04:30:21;;;;;;;1999.90;999.90;;;8.20;99.90;;;;;;6697330;88;20168;-83
2022/10/11 04:40:21;;;;;;;1999.90;999.90;;;8.10;99.90;;;;;;6709136;88;20247;-84
2022/10/11 04:50:22;;;;;;;1999.90;999.90;;;8.20;99.90;;;;;;6694693;88;20220;-82
2022/10/11 05:00:22;;;;;;;1999.90;999.90;;;8.20;99.90;;;;;;6694351;89;20907;-84
2022/10/11 05:10:23;;;;;;;1999.90;999.90;;;7.90;99.90;;;;;;6694559;88;20204;-84
2022/10/11 05:20:24;;;;;;;1999.90;999.90;;;8.00;99.90;;;;;;6712139;88;20191;-85
2022/10/11 05:30:24;;;;;;;1999.90;999.90;;;8.50;99.90;;;;;;6680266;89;20265;-83
2022/10/11 05:40:25;;;;;;;1999.90;999.90;;;8.50;99.90;;;;;;6662274;89;20468;-83
2022/10/11 05:50:25;;;;;;;1999.90;999.90;;;8.50;99.90;;;;;;6663201;89;20207;-82
2022/10/11 06:00:26;;;;;;;1999.90;999.90;;;8.80;99.90;;;;;;6690685;89;20360;-84
2022/10/11 06:10:26;;;;;;;1999.90;999.90;;;9.00;99.90;;;;;;6700979;88;21109;-81
2022/10/11 06:20:27;;;;;;;1999.90;999.90;;;9.30;99.90;;;;;;6680978;89;20220;-85
2022/10/11 06:30:28;;;;;;;1999.90;999.90;;;9.50;99.90;;;;;;6664348;89;20247;-83
2022/10/11 06:40:28;;;;;;;1999.90;999.90;;;9.80;99.90;;;;;;6658859;89;20236;-81
2022/10/11 06:50:29;;;;;;;1999.90;999.90;;;9.90;99.90;;;;;;6689748;88;20623;-81
2022/10/11 07:00:29;;;;;;;1999.90;999.90;;;10.10;99.90;;;;;;6704835;88;20206;-82
2022/10/11 07:10:30;;;;;;;1999.90;999.90;;;10.00;99.90;;;;;;6711594;88;20215;-80
2022/10/11 07:20:31;;;;;;;1999.90;999.90;;;9.90;99.90;;;;;;6698417;88;20195;-81
2022/10/11 07:30:31;;;;;;;1999.90;999.90;;;10.30;99.90;;;;;;6711574;88;20189;-81
2022/10/11 07:40:39;;;;;;;1999.90;999.90;;;10.80;99.90;;;;;;6720721;88;20194;-82
2022/10/11 07:50:39;;;;;;;1999.90;999.90;;;10.90;99.90;;;;;;6733409;88;20209;-81
2022/10/11 08:00:41;;;;;;;1999.90;999.90;;;11.10;99.90;;;;;;6730615;88;20225;-83
2022/10/11 08:10:42;;;;;;;1999.90;999.90;;;11.20;99.90;;;;;;6729378;88;20179;-83
2022/10/11 08:20:43;;;;;;;1999.90;999.90;;;11.10;99.90;;;;;;6733464;88;20169;-82
2022/10/11 08:30:51;;;;;;;1999.90;999.90;;;11.40;99.90;;;;;;6713633;88;20186;-83
2022/10/11 08:40:57;;;;;;;1999.90;999.90;;;11.30;99.90;;;;;;6700206;88;20309;-81
2022/10/11 08:50:58;;;;;;;1999.90;999.90;;;11.50;99.90;;;;;;6699558;88;20256;-82
2022/10/11 09:11:17;;;;;;;1999.90;999.90;;;11.50;99.90;;;;;;6755575;88;20255;-79
2022/10/11 09:21:46;;;;;;;1999.90;999.90;;;12.10;99.90;;;;;;6730248;77;20206;-80
2022/10/11 09:42:00;;;;;;;1999.90;999.90;;;12.90;99.90;;;;;;6717544;88;20255;-79
2022/10/11 09:52:03;;;;;;;1999.90;999.90;;;13.80;99.90;;;;;;6712193;88;20717;-80
2022/10/11 10:02:13;;;;;;;1999.90;999.90;;;13.60;99.90;;;;;;6721145;88;20298;-83
2022/10/11 10:12:23;;;;;;;1999.90;999.90;;;14.50;99.90;;;;;;6721915;88;20305;-81
2022/10/11 10:22:30;;;;;;;1999.90;999.90;;;14.00;99.90;;;;;;6713510;88;20186;-80
2022/10/11 10:32:52;;;;;;;1999.90;999.90;;;15.00;99.90;;;;;;6714179;88;20247;-81
2022/10/11 10:42:52;;;;;;;1999.90;999.90;;;16.60;99.90;;;;;;6692275;88;20295;-79
2022/10/11 10:53:23;;;;;;;1999.90;999.90;;;17.40;99.90;;;;;;6694950;88;20266;-80
2022/10/11 11:03:27;;;;;;;1999.90;999.90;;;19.50;99.90;;;;;;6694202;88;20218;-79
2022/10/11 11:13:49;;;;;;;1999.90;999.90;;;20.40;99.90;;;;;;6699634;88;20417;-79
2022/10/11 11:24:08;;;;;;;1999.90;999.90;;;21.10;99.90;;;;;;6699875;88;20777;-78
2022/10/11 11:34:22;;;;;;;1999.90;999.90;;;21.60;99.90;;;;;;6710479;88;20206;-79
2022/10/11 11:44:42;;;;;;;1999.90;999.90;;;21.50;99.90;;;;;;6698143;88;20186;-79
2022/10/11 11:54:46;;;;;;;1999.90;999.90;;;21.00;99.90;;;;;;6703855;88;20240;-80
2022/10/11 12:04:48;;;;;;;1999.90;999.90;;;22.10;99.60;;;;;;6688586;88;20199;-81
2022/10/11 12:14:49;;;;;;;1999.90;999.90;;;21.60;99.70;;;;;;6683937;88;21250;-79
2022/10/11 12:25:20;;;;;;;1999.90;999.90;;;23.60;97.30;;;;;;6689002;88;20380;-79
2022/10/11 12:35:30;;;;;;;1999.90;999.90;;;24.30;96.10;;;;;;6700594;88;20267;-80
2022/10/11 12:45:33;;;;;;;1999.90;999.90;;;23.80;95.10;;;;;;6691173;88;20213;-81
2022/10/11 12:55:50;;;;;;;1999.90;999.90;;;24.30;94.80;;;;;;6689615;88;20710;-78
2022/10/11 13:05:53;;;;;;;1999.90;999.90;;;23.60;93.80;;;;;;6686737;88;20288;-78
2022/10/11 13:15:56;;;;;;;1999.90;999.90;;;22.50;93.80;;;;;;6686573;88;20186;-81
2022/10/11 13:25:59;;;;;;;1999.90;999.90;;;23.00;94.80;;;;;;6687104;89;20699;-80
2022/10/11 13:36:02;;;;;;;1999.90;999.90;;;23.90;93.30;;;;;;6685778;88;20216;-79
2022/10/11 13:46:03;;;;;;;1999.90;999.90;;;23.30;93.10;;;;;;6706975;88;20191;-80
2022/10/11 13:56:07;;;;;;;1999.90;999.90;;;23.60;93.70;;;;;;6708254;88;20197;-79
2022/10/11 14:06:08;;;;;;;1999.90;999.90;;;24.20;92.40;;;;;;6704740;88;20278;-79
2022/10/11 14:16:12;;;;;;;1999.90;999.90;;;23.40;93.10;;;;;;6705523;88;20241;-79
2022/10/11 14:26:14;;;;;;;1999.90;999.90;;;22.70;94.00;;;;;;6707563;88;20201;-79
2022/10/11 14:36:15;;;;;;;1999.90;999.90;;;22.00;94.10;;;;;;6706035;88;20296;-78
2022/10/11 14:46:24;;;;;;;1999.90;999.90;;;21.90;94.30;;;;;;6705949;88;20344;-79
2022/10/11 14:56:24;;;;;;;1999.90;999.90;;;21.70;94.30;;;;;;6703967;88;20268;-79
2022/10/11 15:06:30;;;;;;;1999.90;999.90;;;21.40;94.40;;;;;;6705245;88;20185;-80
2022/10/11 15:16:32;;;;;;;1999.90;999.90;;;20.60;95.30;;;;;;6705099;88;20766;-78
2022/10/11 15:26:33;;;;;;;1999.90;999.90;;;20.80;95.30;;;;;;6705753;88;20649;-79
2022/10/11 15:47:36;;;;;;;1999.90;999.90;;;19.90;96.10;;;;;;6701040;88;20616;-79
2022/10/11 15:57:36;;;;;;;1999.90;999.90;;;19.20;97.00;;;;;;6696375;88;20233;-79
2022/10/11 16:07:37;;;;;;;1999.90;999.90;;;18.90;96.90;;;;;;6691009;88;21162;-80
2022/10/11 16:17:37;;;;;;;1999.90;999.90;;;18.30;97.90;;;;;;6705927;88;20957;-81
2022/10/11 16:27:38;;;;;;;1999.90;999.90;;;17.80;98.90;;;;;;6705720;88;21106;-80
2022/10/11 16:37:38;;;;;;;1999.90;999.90;;;17.40;99.40;;;;;;6711121;88;20215;-79
2022/10/11 16:47:40;;;;;;;1999.90;999.90;;;16.80;99.90;;;;;;6702901;88;20219;-79
2022/10/11 16:57:41;;;;;;;1999.90;999.90;;;16.00;99.90;;;;;;6704624;88;20332;-79
2022/10/11 17:07:42;;;;;;;1999.90;999.90;;;15.50;99.90;;;;;;6705169;88;20273;-79
2022/10/11 17:17:42;;;;;;;1999.90;999.90;;;15.10;99.90;;;;;;6704898;88;20205;-79
2022/10/11 17:27:43;;;;;;;1999.90;999.90;;;14.50;99.90;;;;;;6706967;88;20202;-80
2022/10/11 17:37:44;;;;;;;1999.90;999.90;;;14.00;99.90;;;;;;6706361;88;20235;-79
2022/10/11 17:47:44;;;;;;;1999.90;999.90;;;13.60;99.90;;;;;;6705417;88;20309;-80
2022/10/11 17:57:45;;;;;;;1999.90;999.90;;;13.20;99.90;;;;;;6708452;88;20230;-80
2022/10/11 18:07:45;;;;;;;1999.90;999.90;;;12.90;99.90;;;;;;6708975;88;20257;-78
2022/10/11 18:17:46;;;;;;;1999.90;999.90;;;12.50;99.90;;;;;;6704705;88;20210;-79
2022/10/11 18:27:47;;;;;;;1999.90;999.90;;;12.10;99.90;;;;;;6707460;88;20195;-77
2022/10/11 18:37:49;;;;;;;1999.90;999.90;;;11.80;99.90;;;;;;6714888;88;20215;-78
2022/10/11 18:47:50;;;;;;;1999.90;999.90;;;11.40;99.90;;;;;;6706469;88;20354;-79
2022/10/11 18:57:50;;;;;;;1999.90;999.90;;;10.90;99.90;;;;;;6712137;88;20206;-78
2022/10/11 19:07:51;;;;;;;1999.90;999.90;;;10.80;99.90;;;;;;6704784;88;20218;-78
2022/10/11 19:17:55;;;;;;;1999.90;999.90;;;10.40;99.90;;;;;;6706145;88;20195;-77
2022/10/11 19:27:56;;;;;;;1999.90;999.90;;;10.40;99.90;;;;;;6710984;88;20194;-79
2022/10/11 19:37:56;;;;;;;1999.90;999.90;;;10.30;99.90;;;;;;6704338;88;20248;-79
2022/10/11 19:47:57;;;;;;;1999.90;999.90;;;10.30;99.90;;;;;;6702559;88;20192;-79
2022/10/11 19:57:57;;;;;;;1999.90;999.90;;;10.20;99.90;;;;;;6687192;88;20180;-80
2022/10/11 20:07:58;;;;;;;1999.90;999.90;;;9.60;99.90;;;;;;6695435;88;20232;-79
2022/10/11 20:17:59;;;;;;;1999.90;999.90;;;9.50;99.90;;;;;;6715483;88;20212;-79
2022/10/11 20:27:59;;;;;;;1999.90;999.90;;;9.30;99.90;;;;;;6713104;88;20724;-80
2022/10/11 20:38:00;;;;;;;1999.90;999.90;;;9.10;99.90;;;;;;6701485;88;20190;-78
2022/10/11 20:48:00;;;;;;;1999.90;999.90;;;9.10;99.90;;;;;;6701814;88;20199;-78
2022/10/11 20:58:01;;;;;;;1999.90;999.90;;;8.80;99.90;;;;;;6709243;88;20244;-77
2022/10/11 21:08:02;;;;;;;1999.90;999.90;;;8.70;99.90;;;;;;6696702;88;20186;-78
2022/10/11 21:18:02;;;;;;;1999.90;999.90;;;8.50;99.90;;;;;;6693666;88;20187;-79
2022/10/11 21:28:04;;;;;;;1999.90;999.90;;;8.50;99.90;;;;;;6691425;88;20238;-80
2022/10/11 21:58:53;;;;;;;1999.90;999.90;;;8.10;99.90;;;;;;7017381;77;20180;-79
2022/10/11 22:08:53;;;;;;;1999.90;999.90;;;7.90;99.90;;;;;;6697623;89;20215;-81
2022/10/11 22:29:18;;;;;;;1999.90;999.90;;;7.80;99.90;;;;;;6934127;77;20178;-78
2022/10/11 23:39:40;;;;;;;1999.90;999.90;;;7.30;99.90;;;;;;6751000;88;20213;-79
2022/10/11 23:49:41;;;;;;;1999.90;999.90;;;7.20;99.90;;;;;;6733177;88;20258;-80
2022/10/11 23:59:41;;;;;;;1999.90;999.90;;;7.20;99.90;;;;;;6734457;88;20185;-79
